^^
Station Historical Data
Daily Summary for October 9, 2017 Units:  Both    English   Metric
« Previous Day
Next Day »
Daily Weekly Monthly Yearly Custom
  High: Low: Average:
Temperature: TemperatureF °F /  -17.8 °C 45.0 °F /  7.2 °C 63.1 °F /  17.3 °C
Dew Point: DewpointF °F /  -17.8 °C -29.2 °F /  -34 °C 8.9 °F /  -12.8 °C
Humidity: Humidity% 1% 19%
Wind Speed: WindSpeedMPHmph /  0km/h - 1mph /  1.6km/h
Wind Gust: WindSpeedGustMPHmph /  0km/h - -
Wind- - SW
Pressure: PressureIn in /  0 hPa 29.75 in /  1007.3 hPa -
Precipitation: 0.00 in /  0 mm    
Historical Graphs
 
 
Tabular Data for October 9, 2017
Time Temperature Dew Point Pressure Wind Wind Speed Wind Gust Humidity Rainfall Rate (Hourly) solar Conditions
TemperatureF °F /  -17.8 °C DewpointF °F /  -17.8 °C PressureInin /  0hPa Calm     Humidity% HourlyPrecipInin /  0mm SolarRadiationWatts/m^2 W/m2 Conditions
00:02 54.1 °F /  12.3 °C 27.1 °F /  -2.7 °C 29.77in /  1008hPa Calm     35% 0.00in /  0mm 0.0 W/m2
00:07 54.0 °F /  12.2 °C 27.0 °F /  -2.8 °C 29.77in /  1008hPa Calm     35% 0.00in /  0mm 0.0 W/m2
00:12 54.0 °F /  12.2 °C 27.7 °F /  -2.4 °C 29.77in /  1008hPa Calm     36% 0.00in /  0mm 0.0 W/m2
00:17 53.8 °F /  12.1 °C 27.5 °F /  -2.5 °C 29.77in /  1008hPa Calm     36% 0.00in /  0mm 0.0 W/m2
00:22 53.4 °F /  11.9 °C 27.1 °F /  -2.7 °C 29.78in /  1008.4hPa Calm     36% 0.00in /  0mm 0.0 W/m2
00:27 53.4 °F /  11.9 °C 27.9 °F /  -2.3 °C 29.78in /  1008.4hPa Calm     37% 0.00in /  0mm 0.0 W/m2
00:32 53.2 °F /  11.8 °C 27.7 °F /  -2.4 °C 29.77in /  1008hPa Calm     37% 0.00in /  0mm 0.0 W/m2
00:37 53.1 °F /  11.7 °C 26.8 °F /  -2.9 °C 29.77in /  1008hPa Calm     36% 0.00in /  0mm 0.0 W/m2
00:42 52.9 °F /  11.6 °C 27.3 °F /  -2.6 °C 29.77in /  1008hPa Calm     37% 0.00in /  0mm 0.0 W/m2
00:47 52.5 °F /  11.4 °C 27.7 °F /  -2.4 °C 29.77in /  1008hPa Calm     38% 0.00in /  0mm 0.0 W/m2
00:52 52.3 °F /  11.3 °C 27.5 °F /  -2.5 °C 29.77in /  1008hPa Calm     38% 0.00in /  0mm 0.0 W/m2
00:58 52.2 °F /  11.2 °C 27.3 °F /  -2.6 °C 29.77in /  1008hPa Calm     38% 0.00in /  0mm 0.0 W/m2
01:03 52.0 °F /  11.1 °C 27.1 °F /  -2.7 °C 29.77in /  1008hPa Calm     38% 0.00in /  0mm 0.0 W/m2
01:08 51.8 °F /  11 °C 25.7 °F /  -3.5 °C 29.77in /  1008hPa Calm     36% 0.00in /  0mm 0.0 W/m2
01:13 51.4 °F /  10.8 °C 25.3 °F /  -3.7 °C 29.77in /  1008hPa Calm     36% 0.00in /  0mm 0.0 W/m2
01:18 51.1 °F /  10.6 °C 25.0 °F /  -3.9 °C 29.77in /  1008hPa Calm     36% 0.00in /  0mm 0.0 W/m2
01:23 50.7 °F /  10.4 °C 25.3 °F /  -3.7 °C 29.77in /  1008hPa Calm     37% 0.00in /  0mm 0.0 W/m2
01:28 50.4 °F /  10.2 °C 25.0 °F /  -3.9 °C 29.77in /  1008hPa Calm     37% 0.00in /  0mm 0.0 W/m2
01:33 50.0 °F /  10 °C 24.8 °F /  -4 °C 29.78in /  1008.4hPa Calm     37% 0.00in /  0mm 0.0 W/m2
01:38 49.6 °F /  9.8 °C 25.0 °F /  -3.9 °C 29.78in /  1008.4hPa Calm     38% 0.00in /  0mm 0.0 W/m2
01:44 49.5 °F /  9.7 °C 25.5 °F /  -3.6 °C 29.78in /  1008.4hPa Calm     39% 0.00in /  0mm 0.0 W/m2
01:49 49.3 °F /  9.6 °C 25.3 °F /  -3.7 °C 29.77in /  1008hPa Calm     39% 0.00in /  0mm 0.0 W/m2
01:54 48.9 °F /  9.4 °C 26.2 °F /  -3.2 °C 29.77in /  1008hPa Calm     41% 0.00in /  0mm 0.0 W/m2
01:59 48.7 °F /  9.3 °C 25.5 °F /  -3.6 °C 29.78in /  1008.4hPa Calm     40% 0.00in /  0mm 0.0 W/m2
02:05 48.6 °F /  9.2 °C 25.3 °F /  -3.7 °C 29.77in /  1008hPa Calm     40% 0.00in /  0mm 0.0 W/m2
02:10 48.4 °F /  9.1 °C 25.7 °F /  -3.5 °C 29.77in /  1008hPa Calm     41% 0.00in /  0mm 0.0 W/m2
02:15 48.2 °F /  9 °C 25.5 °F /  -3.6 °C 29.77in /  1008hPa Calm     41% 0.00in /  0mm 0.0 W/m2
02:26 47.8 °F /  8.8 °C 24.6 °F /  -4.1 °C 29.76in /  1007.7hPa Calm     40% 0.00in /  0mm 0.0 W/m2
02:31 47.8 °F /  8.8 °C 25.3 °F /  -3.7 °C 29.76in /  1007.7hPa Calm     41% 0.00in /  0mm 0.0 W/m2
02:36 47.7 °F /  8.7 °C 25.2 °F /  -3.8 °C 29.76in /  1007.7hPa Calm     41% 0.00in /  0mm 0.0 W/m2
02:42 47.7 °F /  8.7 °C 25.2 °F /  -3.8 °C 29.76in /  1007.7hPa Calm     41% 0.00in /  0mm 0.0 W/m2
02:47 47.5 °F /  8.6 °C 24.4 °F /  -4.2 °C 29.75in /  1007.3hPa Calm     40% 0.00in /  0mm 0.0 W/m2
02:52 47.3 °F /  8.5 °C 24.3 °F /  -4.3 °C 29.75in /  1007.3hPa Calm     40% 0.00in /  0mm 0.0 W/m2
02:57 47.1 °F /  8.4 °C 24.6 °F /  -4.1 °C 29.75in /  1007.3hPa Calm     41% 0.00in /  0mm 0.0 W/m2
03:03 47.1 °F /  8.4 °C 25.7 °F /  -3.5 °C 29.75in /  1007.3hPa Calm     43% 0.00in /  0mm 0.0 W/m2
03:08 47.1 °F /  8.4 °C 25.2 °F /  -3.8 °C 29.75in /  1007.3hPa Calm     42% 0.00in /  0mm 0.0 W/m2
03:13 46.9 °F /  8.3 °C 24.4 °F /  -4.2 °C 29.75in /  1007.3hPa Calm     41% 0.00in /  0mm 0.0 W/m2
03:19 46.9 °F /  8.3 °C 23.9 °F /  -4.5 °C 29.75in /  1007.3hPa Calm     40% 0.00in /  0mm 0.0 W/m2
03:24 46.8 °F /  8.2 °C 24.8 °F /  -4 °C 29.75in /  1007.3hPa Calm     42% 0.00in /  0mm 0.0 W/m2
03:29 46.8 °F /  8.2 °C 25.5 °F /  -3.6 °C 29.75in /  1007.3hPa Calm     43% 0.00in /  0mm 0.0 W/m2
03:34 46.8 °F /  8.2 °C 25.5 °F /  -3.6 °C 29.75in /  1007.3hPa Calm   1.0mph /  1.6km/h 43% 0.00in /  0mm 0.0 W/m2
03:39 46.8 °F /  8.2 °C 24.8 °F /  -4 °C 29.75in /  1007.3hPa Calm     42% 0.00in /  0mm 0.0 W/m2
03:44 46.8 °F /  8.2 °C 24.8 °F /  -4 °C 29.75in /  1007.3hPa Calm     42% 0.00in /  0mm 0.0 W/m2
03:49 46.9 °F /  8.3 °C 24.4 °F /  -4.2 °C 29.75in /  1007.3hPa Calm     41% 0.00in /  0mm 0.0 W/m2
03:54 46.9 °F /  8.3 °C 25.5 °F /  -3.6 °C 29.75in /  1007.3hPa Calm     43% 0.00in /  0mm 0.0 W/m2
04:05 46.9 °F /  8.3 °C 25.0 °F /  -3.9 °C 29.75in /  1007.3hPa Calm     42% 0.00in /  0mm 0.0 W/m2
04:10 46.9 °F /  8.3 °C 24.4 °F /  -4.2 °C 29.75in /  1007.3hPa Calm     41% 0.00in /  0mm 0.0 W/m2
04:15 46.9 °F /  8.3 °C 24.4 °F /  -4.2 °C 29.75in /  1007.3hPa Calm     41% 0.00in /  0mm 0.0 W/m2
04:20 46.9 °F /  8.3 °C 24.4 °F /  -4.2 °C 29.75in /  1007.3hPa Calm   1.0mph /  1.6km/h 41% 0.00in /  0mm 0.0 W/m2
04:25 46.9 °F /  8.3 °C 23.9 °F /  -4.5 °C 29.75in /  1007.3hPa Calm   1.0mph /  1.6km/h 40% 0.00in /  0mm 0.0 W/m2
04:30 46.9 °F /  8.3 °C 23.9 °F /  -4.5 °C 29.75in /  1007.3hPa Calm     40% 0.00in /  0mm 0.0 W/m2
04:36 46.9 °F /  8.3 °C 23.9 °F /  -4.5 °C 29.76in /  1007.7hPa Calm     40% 0.00in /  0mm 0.0 W/m2
04:42 46.9 °F /  8.3 °C 23.2 °F /  -4.9 °C 29.76in /  1007.7hPa Calm     39% 0.00in /  0mm 0.0 W/m2
04:47 46.8 °F /  8.2 °C 23.7 °F /  -4.6 °C 29.76in /  1007.7hPa Calm     40% 0.00in /  0mm 0.0 W/m2
04:52 46.8 °F /  8.2 °C 23.2 °F /  -4.9 °C 29.76in /  1007.7hPa Calm     39% 0.00in /  0mm 0.0 W/m2
04:57 46.6 °F /  8.1 °C 23.5 °F /  -4.7 °C 29.76in /  1007.7hPa Calm     40% 0.00in /  0mm 0.0 W/m2
05:02 46.6 °F /  8.1 °C 23.5 °F /  -4.7 °C 29.76in /  1007.7hPa Calm     40% 0.00in /  0mm 0.0 W/m2
05:07 46.4 °F /  8 °C 23.4 °F /  -4.8 °C 29.76in /  1007.7hPa Calm     40% 0.00in /  0mm 0.0 W/m2
05:16 46.2 °F /  7.9 °C 22.6 °F /  -5.2 °C 29.76in /  1007.7hPa Calm     39% 0.00in /  0mm 0.0 W/m2
05:21 46.0 °F /  7.8 °C 22.5 °F /  -5.3 °C 29.76in /  1007.7hPa Calm     39% 0.00in /  0mm 0.0 W/m2
05:26 45.9 °F /  7.7 °C 22.3 °F /  -5.4 °C 29.76in /  1007.7hPa Calm     39% 0.00in /  0mm 0.0 W/m2
05:27 45.9 °F /  7.7 °C 21.7 °F /  -5.7 °C 29.76in /  1007.7hPa Calm     38% 0.00in /  0mm 0.0 W/m2
05:30 45.9 °F /  7.7 °C 22.3 °F /  -5.4 °C 29.76in /  1007.7hPa Calm     39% 0.00in /  0mm 0.0 W/m2
05:39 45.7 °F /  7.6 °C 20.3 °F /  -6.5 °C 29.77in /  1008hPa Calm     36% 0.00in /  0mm 0.0 W/m2
05:42 45.5 °F /  7.5 °C 21.4 °F /  -5.9 °C 29.77in /  1008hPa Calm     38% 0.00in /  0mm 0.0 W/m2
05:47 45.3 °F /  7.4 °C 20.7 °F /  -6.3 °C 29.77in /  1008hPa Calm     37% 0.00in /  0mm 0.0 W/m2
05:52 45.3 °F /  7.4 °C 21.7 °F /  -5.7 °C 29.77in /  1008hPa Calm     39% 0.00in /  0mm 0.0 W/m2
05:57 45.1 °F /  7.3 °C 21.7 °F /  -5.7 °C 29.77in /  1008hPa Calm     39% 0.00in /  0mm 0.0 W/m2
06:08 45.0 °F /  7.2 °C 20.3 °F /  -6.5 °C 29.77in /  1008hPa Calm     37% 0.00in /  0mm 0.0 W/m2
06:13 45.1 °F /  7.3 °C 21.0 °F /  -6.1 °C 29.77in /  1008hPa Calm     38% 0.00in /  0mm 0.0 W/m2
06:18 45.1 °F /  7.3 °C 20.5 °F /  -6.4 °C 29.77in /  1008hPa Calm     37% 0.00in /  0mm 0.0 W/m2
06:23 45.1 °F /  7.3 °C 21.7 °F /  -5.7 °C 29.78in /  1008.4hPa Calm     39% 0.00in /  0mm 0.0 W/m2
06:28 45.1 °F /  7.3 °C 21.7 °F /  -5.7 °C 29.77in /  1008hPa Calm     39% 0.00in /  0mm 5.0 W/m2
06:33 45.0 °F /  7.2 °C 21.6 °F /  -5.8 °C 29.78in /  1008.4hPa Calm     39% 0.00in /  0mm 5.0 W/m2
06:38 45.0 °F /  7.2 °C 21.6 °F /  -5.8 °C 29.78in /  1008.4hPa Calm     39% 0.00in /  0mm 7.0 W/m2
06:43 45.1 °F /  7.3 °C 22.3 °F /  -5.4 °C 29.78in /  1008.4hPa Calm     40% 0.00in /  0mm 9.0 W/m2
06:49 45.3 °F /  7.4 °C 22.5 °F /  -5.3 °C 29.78in /  1008.4hPa Calm     40% 0.00in /  0mm 11.0 W/m2
06:54 45.5 °F /  7.5 °C 21.9 °F /  -5.6 °C 29.78in /  1008.4hPa Calm     39% 0.00in /  0mm 12.0 W/m2
06:59 45.7 °F /  7.6 °C 22.1 °F /  -5.5 °C 29.78in /  1008.4hPa Calm     39% 0.00in /  0mm 14.0 W/m2
07:04 46.0 °F /  7.8 °C 21.9 °F /  -5.6 °C 29.78in /  1008.4hPa Calm     38% 0.00in /  0mm 16.0 W/m2
07:09 46.2 °F /  7.9 °C 21.9 °F /  -5.6 °C 29.78in /  1008.4hPa Calm     38% 0.00in /  0mm 16.0 W/m2
07:15 46.8 °F /  8.2 °C 23.2 °F /  -4.9 °C 29.78in /  1008.4hPa Calm     39% 0.00in /  0mm 18.0 W/m2
07:20 47.1 °F /  8.4 °C 22.8 °F /  -5.1 °C 29.78in /  1008.4hPa Calm     38% 0.00in /  0mm 19.0 W/m2
07:25 47.8 °F /  8.8 °C 22.8 °F /  -5.1 °C 29.78in /  1008.4hPa Calm   1.0mph /  1.6km/h 37% 0.00in /  0mm 19.0 W/m2
07:31 48.6 °F /  9.2 °C 22.8 °F /  -5.1 °C 29.78in /  1008.4hPa Calm     36% 0.00in /  0mm 25.0 W/m2
07:36 49.5 °F /  9.7 °C 23.0 °F /  -5 °C 29.79in /  1008.7hPa Calm   1.0mph /  1.6km/h 35% 0.00in /  0mm 33.0 W/m2
07:41 50.4 °F /  10.2 °C 22.3 °F /  -5.4 °C 29.79in /  1008.7hPa Calm     33% 0.00in /  0mm 35.0 W/m2
07:46 50.9 °F /  10.5 °C 22.8 °F /  -5.1 °C 29.79in /  1008.7hPa Calm   1.0mph /  1.6km/h 33% 0.00in /  0mm 30.0 W/m2
07:51 51.4 °F /  10.8 °C 23.4 °F /  -4.8 °C 29.79in /  1008.7hPa East 0.9mph /  1.4km/h 1.0mph /  1.6km/h 33% 0.00in /  0mm 26.0 W/m2
07:56 52.0 °F /  11.1 °C 22.3 °F /  -5.4 °C 29.79in /  1008.7hPa Calm   1.0mph /  1.6km/h 31% 0.00in /  0mm 26.0 W/m2
08:01 52.3 °F /  11.3 °C 22.6 °F /  -5.2 °C 29.79in /  1008.7hPa Calm     31% 0.00in /  0mm 26.0 W/m2
08:11 54.0 °F /  12.2 °C 22.5 °F /  -5.3 °C 29.79in /  1008.7hPa Calm   1.0mph /  1.6km/h 29% 0.00in /  0mm 28.0 W/m2
08:16 54.9 °F /  12.7 °C 21.6 °F /  -5.8 °C 29.79in /  1008.7hPa Calm   2.0mph /  3.2km/h 27% 0.00in /  0mm 28.0 W/m2
08:27 57.0 °F /  13.9 °C 21.6 °F /  -5.8 °C 29.80in /  1009hPa SW 2.9mph /  4.7km/h 4.0mph /  6.4km/h 25% 0.00in /  0mm 42.0 W/m2
08:32 58.3 °F /  14.6 °C 21.6 °F /  -5.8 °C 29.80in /  1009hPa WSW 2.9mph /  4.7km/h 5.0mph /  8km/h 24% 0.00in /  0mm 313.0 W/m2
08:37 59.2 °F /  15.1 °C 23.4 °F /  -4.8 °C 29.80in /  1009hPa SSW 0.9mph /  1.4km/h 5.0mph /  8km/h 25% 0.00in /  0mm 512.0 W/m2
08:42 59.5 °F /  15.3 °C 22.6 °F /  -5.2 °C 29.80in /  1009hPa Calm   8.0mph /  12.9km/h 24% 0.00in /  0mm 531.0 W/m2
08:47 60.3 °F /  15.7 °C 22.3 °F /  -5.4 °C 29.80in /  1009hPa South 0.9mph /  1.4km/h 7.0mph /  11.3km/h 23% 0.00in /  0mm 550.0 W/m2
08:53 61.0 °F /  16.1 °C 23.9 °F /  -4.5 °C 29.81in /  1009.4hPa South 0.9mph /  1.4km/h 8.0mph /  12.9km/h 24% 0.00in /  0mm 573.0 W/m2
08:58 61.2 °F /  16.2 °C 20.8 °F /  -6.2 °C 29.81in /  1009.4hPa SSE 0.9mph /  1.4km/h 4.0mph /  6.4km/h 21% 0.00in /  0mm 598.0 W/m2
09:03 61.5 °F /  16.4 °C 17.6 °F /  -8 °C 29.81in /  1009.4hPa Calm   6.0mph /  9.7km/h 18% 0.00in /  0mm 617.0 W/m2
09:08 61.9 °F /  16.6 °C 15.3 °F /  -9.3 °C 29.81in /  1009.4hPa Calm   6.0mph /  9.7km/h 16% 0.00in /  0mm 635.0 W/m2
09:14 62.2 °F /  16.8 °C 19.4 °F /  -7 °C 29.82in /  1009.7hPa SSW 2.9mph /  4.7km/h 7.0mph /  11.3km/h 19% 0.00in /  0mm 652.0 W/m2
09:19 62.8 °F /  17.1 °C 17.2 °F /  -8.2 °C 29.82in /  1009.7hPa West 2.9mph /  4.7km/h 3.0mph /  4.8km/h 17% 0.00in /  0mm 668.0 W/m2
09:24 63.1 °F /  17.3 °C 17.6 °F /  -8 °C 29.82in /  1009.7hPa Calm   7.0mph /  11.3km/h 17% 0.00in /  0mm 687.0 W/m2
09:29 63.7 °F /  17.6 °C 18.0 °F /  -7.8 °C 29.82in /  1009.7hPa SW 2.9mph /  4.7km/h 7.0mph /  11.3km/h 17% 0.00in /  0mm 705.0 W/m2
09:34 64.0 °F /  17.8 °C 16.9 °F /  -8.4 °C 29.82in /  1009.7hPa WSW 4.9mph /  7.9km/h 7.0mph /  11.3km/h 16% 0.00in /  0mm 719.0 W/m2
09:39 64.4 °F /  18 °C 17.2 °F /  -8.2 °C 29.82in /  1009.7hPa South 2.0mph /  3.2km/h 7.0mph /  11.3km/h 16% 0.00in /  0mm 738.0 W/m2
09:44 64.8 °F /  18.2 °C 16.0 °F /  -8.9 °C 29.82in /  1009.7hPa SW 2.0mph /  3.2km/h 4.0mph /  6.4km/h 15% 0.00in /  0mm 758.0 W/m2
09:46 64.9 °F /  18.3 °C 14.5 °F /  -9.7 °C 29.82in /  1009.7hPa West 0.9mph /  1.4km/h 4.0mph /  6.4km/h 14% 0.00in /  0mm 759.0 W/m2
09:51 65.1 °F /  18.4 °C 16.3 °F /  -8.7 °C 29.82in /  1009.7hPa SSW 0.9mph /  1.4km/h 7.0mph /  11.3km/h 15% 0.00in /  0mm 775.0 W/m2
09:56 65.3 °F /  18.5 °C 16.5 °F /  -8.6 °C 29.82in /  1009.7hPa WSW 2.9mph /  4.7km/h 7.0mph /  11.3km/h 15% 0.00in /  0mm 786.0 W/m2
10:02 65.7 °F /  18.7 °C 16.7 °F /  -8.5 °C 29.82in /  1009.7hPa Calm   6.0mph /  9.7km/h 15% 0.00in /  0mm 803.0 W/m2
10:07 65.8 °F /  18.8 °C 15.3 °F /  -9.3 °C 29.82in /  1009.7hPa Calm   4.0mph /  6.4km/h 14% 0.00in /  0mm 821.0 W/m2
10:12 66.0 °F /  18.9 °C 13.8 °F /  -10.1 °C 29.82in /  1009.7hPa Calm   5.0mph /  8km/h 13% 0.00in /  0mm 835.0 W/m2
10:17 66.6 °F /  19.2 °C 12.4 °F /  -10.9 °C 29.82in /  1009.7hPa West 0.9mph /  1.4km/h 8.0mph /  12.9km/h 12% 0.00in /  0mm 849.0 W/m2
10:22 66.9 °F /  19.4 °C 12.6 °F /  -10.8 °C 29.82in /  1009.7hPa SW 2.9mph /  4.7km/h 5.0mph /  8km/h 12% 0.00in /  0mm 856.0 W/m2
10:27 67.3 °F /  19.6 °C 12.9 °F /  -10.6 °C 29.82in /  1009.7hPa WSW 0.9mph /  1.4km/h 7.0mph /  11.3km/h 12% 0.00in /  0mm 872.0 W/m2
10:32 67.5 °F /  19.7 °C 13.1 °F /  -10.5 °C 29.83in /  1010hPa South 2.9mph /  4.7km/h 5.0mph /  8km/h 12% 0.00in /  0mm 886.0 W/m2
10:37 67.5 °F /  19.7 °C 14.9 °F /  -9.5 °C 29.83in /  1010hPa Calm   7.0mph /  11.3km/h 13% 0.00in /  0mm 882.0 W/m2
10:43 67.6 °F /  19.8 °C 11.3 °F /  -11.5 °C 29.83in /  1010hPa West 6.0mph /  9.7km/h 7.0mph /  11.3km/h 11% 0.00in /  0mm 909.0 W/m2
10:48 67.6 °F /  19.8 °C 15.1 °F /  -9.4 °C 29.83in /  1010hPa WSW 4.9mph /  7.9km/h 6.0mph /  9.7km/h 13% 0.00in /  0mm 918.0 W/m2
10:53 68.2 °F /  20.1 °C 13.6 °F /  -10.2 °C 29.83in /  1010hPa South 2.0mph /  3.2km/h 5.0mph /  8km/h 12% 0.00in /  0mm 930.0 W/m2
10:58 68.5 °F /  20.3 °C 13.8 °F /  -10.1 °C 29.83in /  1010hPa South 0.9mph /  1.4km/h 3.0mph /  4.8km/h 12% 0.00in /  0mm 944.0 W/m2
11:03 69.1 °F /  20.6 °C 16.2 °F /  -8.8 °C 29.83in /  1010hPa Calm   4.0mph /  6.4km/h 13% 0.00in /  0mm 946.0 W/m2
11:08 69.6 °F /  20.9 °C 12.7 °F /  -10.7 °C 29.82in /  1009.7hPa Calm   3.0mph /  4.8km/h 11% 0.00in /  0mm 960.0 W/m2
11:13 70.3 °F /  21.3 °C 15.3 °F /  -9.3 °C 29.82in /  1009.7hPa NNW 0.9mph /  1.4km/h 3.0mph /  4.8km/h 12% 0.00in /  0mm 969.0 W/m2
11:18 71.1 °F /  21.7 °C 11.7 °F /  -11.3 °C 29.82in /  1009.7hPa Calm   3.0mph /  4.8km/h 10% 0.00in /  0mm 976.0 W/m2
11:24 71.2 °F /  21.8 °C 9.5 °F /  -12.5 °C 29.82in /  1009.7hPa North 2.0mph /  3.2km/h 2.0mph /  3.2km/h 9% 0.00in /  0mm 988.0 W/m2
11:30 71.6 °F /  22 °C 12.2 °F /  -11 °C 29.82in /  1009.7hPa SSE 2.9mph /  4.7km/h 6.0mph /  9.7km/h 10% 0.00in /  0mm 991.0 W/m2
11:35 71.2 °F /  21.8 °C 14.0 °F /  -10 °C 29.81in /  1009.4hPa Calm   7.0mph /  11.3km/h 11% 0.00in /  0mm 995.0 W/m2
11:40 71.2 °F /  21.8 °C 11.8 °F /  -11.2 °C 29.81in /  1009.4hPa SSW 0.9mph /  1.4km/h 1.0mph /  1.6km/h 10% 0.00in /  0mm 1004.0 W/m2
11:45 71.8 °F /  22.1 °C 9.9 °F /  -12.3 °C 29.81in /  1009.4hPa East 0.9mph /  1.4km/h 3.0mph /  4.8km/h 9% 0.00in /  0mm 1009.0 W/m2
11:51 72.7 °F /  22.6 °C 10.6 °F /  -11.9 °C 29.81in /  1009.4hPa Calm     9% 0.00in /  0mm 1018.0 W/m2
11:56 73.4 °F /  23 °C 13.5 °F /  -10.3 °C 29.81in /  1009.4hPa WSW 0.9mph /  1.4km/h 2.0mph /  3.2km/h 10% 0.00in /  0mm 1014.0 W/m2
12:01 73.9 °F /  23.3 °C 14.0 °F /  -10 °C 29.81in /  1009.4hPa West 2.9mph /  4.7km/h 9.0mph /  14.5km/h 10% 0.00in /  0mm 1018.0 W/m2
12:06 73.6 °F /  23.1 °C 13.6 °F /  -10.2 °C 29.81in /  1009.4hPa South 0.9mph /  1.4km/h 2.0mph /  3.2km/h 10% 0.00in /  0mm 1020.0 W/m2
12:11 73.4 °F /  23 °C 11.1 °F /  -11.6 °C 29.80in /  1009hPa WNW 0.9mph /  1.4km/h 7.0mph /  11.3km/h 9% 0.00in /  0mm 1030.0 W/m2
12:16 73.2 °F /  22.9 °C 10.9 °F /  -11.7 °C 29.80in /  1009hPa Calm   5.0mph /  8km/h 9% 0.00in /  0mm 1028.0 W/m2
12:22 73.2 °F /  22.9 °C 10.9 °F /  -11.7 °C 29.80in /  1009hPa Calm   7.0mph /  11.3km/h 9% 0.00in /  0mm 1030.0 W/m2
12:27 73.8 °F /  23.2 °C 11.5 °F /  -11.4 °C 29.80in /  1009hPa WNW 2.0mph /  3.2km/h 3.0mph /  4.8km/h 9% 0.00in /  0mm 1034.0 W/m2
12:32 74.5 °F /  23.6 °C 9.3 °F /  -12.6 °C 29.80in /  1009hPa Calm   4.0mph /  6.4km/h 8% 0.00in /  0mm 1032.0 W/m2
12:37 74.7 °F /  23.7 °C 6.4 °F /  -14.2 °C 29.80in /  1009hPa WNW 0.9mph /  1.4km/h 7.0mph /  11.3km/h 7% 0.00in /  0mm 1034.0 W/m2
12:42 74.8 °F /  23.8 °C 6.6 °F /  -14.1 °C 29.80in /  1009hPa South 0.9mph /  1.4km/h 1.0mph /  1.6km/h 7% 0.00in /  0mm 1028.0 W/m2
12:47 75.7 °F /  24.3 °C 3.9 °F /  -15.6 °C 29.79in /  1008.7hPa Calm   4.0mph /  6.4km/h 6% 0.00in /  0mm 1028.0 W/m2
12:52 76.1 °F /  24.5 °C 4.1 °F /  -15.5 °C 29.79in /  1008.7hPa NNE 2.9mph /  4.7km/h 5.0mph /  8km/h 6% 0.00in /  0mm 1027.0 W/m2
12:57 76.6 °F /  24.8 °C 0.7 °F /  -17.4 °C 29.79in /  1008.7hPa Calm   7.0mph /  11.3km/h 5% 0.00in /  0mm 1021.0 W/m2
13:02 76.8 °F /  24.9 °C 0.7 °F /  -17.4 °C 29.79in /  1008.7hPa Calm   4.0mph /  6.4km/h 5% 0.00in /  0mm 1021.0 W/m2
13:08 77.4 °F /  25.2 °C 1.0 °F /  -17.2 °C 29.78in /  1008.4hPa WNW 2.0mph /  3.2km/h 12.0mph /  19.3km/h 5% 0.00in /  0mm 1020.0 W/m2
13:13 78.3 °F /  25.7 °C -2.9 °F /  -19.4 °C 29.78in /  1008.4hPa NNE 0.9mph /  1.4km/h 7.0mph /  11.3km/h 4% 0.00in /  0mm 1016.0 W/m2
13:18 79.0 °F /  26.1 °C -2.6 °F /  -19.2 °C 29.78in /  1008.4hPa WNW 0.9mph /  1.4km/h 3.0mph /  4.8km/h 4% 0.00in /  0mm 1014.0 W/m2
13:23 79.9 °F /  26.6 °C -7.8 °F /  -22.1 °C 29.78in /  1008.4hPa West 2.0mph /  3.2km/h 3.0mph /  4.8km/h 3% 0.00in /  0mm 1011.0 W/m2
13:28 79.9 °F /  26.6 °C -15.9 °F /  -26.6 °C 29.78in /  1008.4hPa West 4.9mph /  7.9km/h 7.0mph /  11.3km/h 2% 0.00in /  0mm 1005.0 W/m2
13:34 79.5 °F /  26.4 °C -16.2 °F /  -26.8 °C 29.78in /  1008.4hPa WSW 4.9mph /  7.9km/h 11.0mph /  17.7km/h 2% 0.00in /  0mm 997.0 W/m2
13:35 79.3 °F /  26.3 °C -16.2 °F /  -26.8 °C 29.78in /  1008.4hPa WSW 6.9mph /  11.1km/h 11.0mph /  17.7km/h 2% 0.00in /  0mm 997.0 W/m2
13:41 78.6 °F /  25.9 °C -8.7 °F /  -22.6 °C 29.78in /  1008.4hPa WNW 0.9mph /  1.4km/h 2.0mph /  3.2km/h 3% 0.00in /  0mm 988.0 W/m2
13:46 78.6 °F /  25.9 °C -16.8 °F /  -27.1 °C 29.78in /  1008.4hPa Calm   6.0mph /  9.7km/h 2% 0.00in /  0mm 981.0 W/m2
13:52 78.6 °F /  25.9 °C -16.8 °F /  -27.1 °C 29.78in /  1008.4hPa Calm   2.0mph /  3.2km/h 2% 0.00in /  0mm 970.0 W/m2
13:57 78.8 °F /  26 °C -8.5 °F /  -22.5 °C 29.78in /  1008.4hPa WNW 2.0mph /  3.2km/h 2.0mph /  3.2km/h 3% 0.00in /  0mm 965.0 W/m2
14:02 79.3 °F /  26.3 °C -16.2 °F /  -26.8 °C 29.78in /  1008.4hPa West 8.1mph /  13km/h 10.0mph /  16.1km/h 2% 0.00in /  0mm 954.0 W/m2
14:07 79.5 °F /  26.4 °C -16.2 °F /  -26.8 °C 29.78in /  1008.4hPa West 2.0mph /  3.2km/h 7.0mph /  11.3km/h 2% 0.00in /  0mm 946.0 W/m2
14:12 79.9 °F /  26.6 °C -15.9 °F /  -26.6 °C 29.78in /  1008.4hPa NNE 2.0mph /  3.2km/h 6.0mph /  9.7km/h 2% 0.00in /  0mm 933.0 W/m2
14:17 80.2 °F /  26.8 °C -15.7 °F /  -26.5 °C 29.78in /  1008.4hPa NW 2.9mph /  4.7km/h 7.0mph /  11.3km/h 2% 0.00in /  0mm 925.0 W/m2
14:22 80.4 °F /  26.9 °C -15.5 °F /  -26.4 °C 29.77in /  1008hPa Calm   3.0mph /  4.8km/h 2% 0.00in /  0mm 914.0 W/m2
14:29 80.8 °F /  27.1 °C -15.3 °F /  -26.3 °C 29.77in /  1008hPa West 0.9mph /  1.4km/h 5.0mph /  8km/h 2% 0.00in /  0mm 904.0 W/m2
14:34 81.3 °F /  27.4 °C -15.0 °F /  -26.1 °C 29.77in /  1008hPa NW 2.0mph /  3.2km/h 7.0mph /  11.3km/h 2% 0.00in /  0mm 889.0 W/m2
14:39 81.9 °F /  27.7 °C -14.6 °F /  -25.9 °C 29.76in /  1007.7hPa NNW 0.9mph /  1.4km/h 4.0mph /  6.4km/h 2% 0.00in /  0mm 877.0 W/m2
14:45 82.0 °F /  27.8 °C -27.8 °F /  -33.2 °C 29.76in /  1007.7hPa Calm   5.0mph /  8km/h 1% 0.00in /  0mm 865.0 W/m2
14:50 82.2 °F /  27.9 °C -27.8 °F /  -33.2 °C 29.76in /  1007.7hPa Calm   1.0mph /  1.6km/h 1% 0.00in /  0mm 849.0 W/m2
14:55 81.9 °F /  27.7 °C -27.9 °F /  -33.3 °C 29.76in /  1007.7hPa NNW 0.9mph /  1.4km/h 6.0mph /  9.7km/h 1% 0.00in /  0mm 838.0 W/m2
15:00 82.0 °F /  27.8 °C -27.8 °F /  -33.2 °C 29.75in /  1007.3hPa NW 0.9mph /  1.4km/h 2.0mph /  3.2km/h 1% 0.00in /  0mm 826.0 W/m2
15:05 82.2 °F /  27.9 °C -14.4 °F /  -25.8 °C 29.75in /  1007.3hPa WSW 8.1mph /  13km/h 10.0mph /  16.1km/h 2% 0.00in /  0mm 812.0 W/m2
15:10 81.7 °F /  27.6 °C -14.8 °F /  -26 °C 29.75in /  1007.3hPa West 0.9mph /  1.4km/h 9.0mph /  14.5km/h 2% 0.00in /  0mm 796.0 W/m2
15:15 81.9 °F /  27.7 °C -14.6 °F /  -25.9 °C 29.75in /  1007.3hPa WNW 0.9mph /  1.4km/h 6.0mph /  9.7km/h 2% 0.00in /  0mm 784.0 W/m2
15:20 81.9 °F /  27.7 °C -14.6 °F /  -25.9 °C 29.75in /  1007.3hPa WSW 4.9mph /  7.9km/h 8.0mph /  12.9km/h 2% 0.00in /  0mm 766.0 W/m2
15:25 81.3 °F /  27.4 °C -15.0 °F /  -26.1 °C 29.75in /  1007.3hPa West 2.9mph /  4.7km/h 9.0mph /  14.5km/h 2% 0.00in /  0mm 752.0 W/m2
15:31 80.4 °F /  26.9 °C -15.5 °F /  -26.4 °C 29.75in /  1007.3hPa Calm   5.0mph /  8km/h 2% 0.00in /  0mm 733.0 W/m2
15:36 80.2 °F /  26.8 °C -15.7 °F /  -26.5 °C 29.75in /  1007.3hPa Calm   5.0mph /  8km/h 2% 0.00in /  0mm 721.0 W/m2
15:41 81.0 °F /  27.2 °C -15.3 °F /  -26.3 °C 29.75in /  1007.3hPa Calm   4.0mph /  6.4km/h 2% 0.00in /  0mm 705.0 W/m2
15:47 81.9 °F /  27.7 °C -14.6 °F /  -25.9 °C 29.75in /  1007.3hPa West 2.0mph /  3.2km/h 8.0mph /  12.9km/h 2% 0.00in /  0mm 684.0 W/m2
15:52 82.0 °F /  27.8 °C -14.6 °F /  -25.9 °C 29.75in /  1007.3hPa NNW 0.9mph /  1.4km/h 3.0mph /  4.8km/h 2% 0.00in /  0mm 666.0 W/m2
15:57 82.2 °F /  27.9 °C -14.4 °F /  -25.8 °C 29.75in /  1007.3hPa WNW 2.9mph /  4.7km/h 6.0mph /  9.7km/h 2% 0.00in /  0mm 650.0 W/m2
16:02 81.9 °F /  27.7 °C -14.6 °F /  -25.9 °C 29.75in /  1007.3hPa SW 2.9mph /  4.7km/h 9.0mph /  14.5km/h 2% 0.00in /  0mm 633.0 W/m2
16:07 81.1 °F /  27.3 °C -15.2 °F /  -26.2 °C 29.75in /  1007.3hPa NW 2.0mph /  3.2km/h 6.0mph /  9.7km/h 2% 0.00in /  0mm 615.0 W/m2
16:12 81.3 °F /  27.4 °C -15.0 °F /  -26.1 °C 29.75in /  1007.3hPa West 8.9mph /  14.3km/h 13.0mph /  20.9km/h 2% 0.00in /  0mm 594.0 W/m2
16:18 81.5 °F /  27.5 °C -15.0 °F /  -26.1 °C 29.75in /  1007.3hPa SW 4.0mph /  6.4km/h 5.0mph /  8km/h 2% 0.00in /  0mm 578.0 W/m2
16:23 81.3 °F /  27.4 °C -15.0 °F /  -26.1 °C 29.75in /  1007.3hPa WNW 6.9mph /  11.1km/h 7.0mph /  11.3km/h 2% 0.00in /  0mm 561.0 W/m2
16:29 81.7 °F /  27.6 °C -27.9 °F /  -33.3 °C 29.75in /  1007.3hPa WSW 2.0mph /  3.2km/h 5.0mph /  8km/h 1% 0.00in /  0mm 538.0 W/m2
16:30 81.7 °F /  27.6 °C -27.9 °F /  -33.3 °C 29.75in /  1007.3hPa WNW 4.0mph /  6.4km/h 9.0mph /  14.5km/h 1% 0.00in /  0mm 531.0 W/m2
16:35 81.5 °F /  27.5 °C -28.1 °F /  -33.4 °C 29.75in /  1007.3hPa WSW 8.1mph /  13km/h 12.0mph /  19.3km/h 1% 0.00in /  0mm 513.0 W/m2
16:40 81.3 °F /  27.4 °C -28.3 °F /  -33.5 °C 29.75in /  1007.3hPa West 0.9mph /  1.4km/h 6.0mph /  9.7km/h 1% 0.00in /  0mm 492.0 W/m2
16:45 81.0 °F /  27.2 °C -28.5 °F /  -33.6 °C 29.75in /  1007.3hPa WSW 0.9mph /  1.4km/h 9.0mph /  14.5km/h 1% 0.00in /  0mm 476.0 W/m2
16:50 80.2 °F /  26.8 °C -28.8 °F /  -33.8 °C 29.75in /  1007.3hPa WSW 4.0mph /  6.4km/h 9.0mph /  14.5km/h 1% 0.00in /  0mm 452.0 W/m2
16:55 80.1 °F /  26.7 °C -29.0 °F /  -33.9 °C 29.75in /  1007.3hPa West 2.9mph /  4.7km/h 8.0mph /  12.9km/h 1% 0.00in /  0mm 432.0 W/m2
17:00 80.1 °F /  26.7 °C -29.0 °F /  -33.9 °C 29.75in /  1007.3hPa WNW 10.1mph /  16.3km/h 12.0mph /  19.3km/h 1% 0.00in /  0mm 410.0 W/m2
17:06 80.1 °F /  26.7 °C -29.0 °F /  -33.9 °C 29.75in /  1007.3hPa West 2.9mph /  4.7km/h 6.0mph /  9.7km/h 1% 0.00in /  0mm 396.0 W/m2
17:11 80.2 °F /  26.8 °C -28.8 °F /  -33.8 °C 29.76in /  1007.7hPa West 8.9mph /  14.3km/h 9.0mph /  14.5km/h 1% 0.00in /  0mm 374.0 W/m2
17:16 80.1 °F /  26.7 °C -29.0 °F /  -33.9 °C 29.76in /  1007.7hPa West 2.9mph /  4.7km/h 10.0mph /  16.1km/h 1% 0.00in /  0mm 353.0 W/m2
17:21 80.1 °F /  26.7 °C -29.0 °F /  -33.9 °C 29.76in /  1007.7hPa WSW 0.9mph /  1.4km/h 4.0mph /  6.4km/h 1% 0.00in /  0mm 334.0 W/m2
17:26 80.1 °F /  26.7 °C -15.9 °F /  -26.6 °C 29.76in /  1007.7hPa WSW 4.0mph /  6.4km/h 9.0mph /  14.5km/h 2% 0.00in /  0mm 311.0 W/m2
17:31 79.7 °F /  26.5 °C -29.2 °F /  -34 °C 29.76in /  1007.7hPa West 2.0mph /  3.2km/h 8.0mph /  12.9km/h 1% 0.00in /  0mm 292.0 W/m2
17:36 79.5 °F /  26.4 °C -16.2 °F /  -26.8 °C 29.76in /  1007.7hPa WSW 2.0mph /  3.2km/h 3.0mph /  4.8km/h 2% 0.00in /  0mm 269.0 W/m2
17:41 79.3 °F /  26.3 °C -16.2 °F /  -26.8 °C 29.77in /  1008hPa West 6.9mph /  11.1km/h 8.0mph /  12.9km/h 2% 0.00in /  0mm 250.0 W/m2
17:46 79.0 °F /  26.1 °C -16.6 °F /  -27 °C 29.76in /  1007.7hPa West 2.9mph /  4.7km/h 9.0mph /  14.5km/h 2% 0.00in /  0mm 229.0 W/m2
17:52 78.6 °F /  25.9 °C -16.8 °F /  -27.1 °C 29.77in /  1008hPa WSW 2.9mph /  4.7km/h 9.0mph /  14.5km/h 2% 0.00in /  0mm 209.0 W/m2
17:57 78.1 °F /  25.6 °C -17.1 °F /  -27.3 °C 29.77in /  1008hPa Calm   7.0mph /  11.3km/h 2% 0.00in /  0mm 188.0 W/m2
18:02 78.1 °F /  25.6 °C -17.1 °F /  -27.3 °C 29.77in /  1008hPa WSW 2.9mph /  4.7km/h 4.0mph /  6.4km/h 2% 0.00in /  0mm 163.0 W/m2
18:07 77.7 °F /  25.4 °C -9.2 °F /  -22.9 °C 29.77in /  1008hPa SSW 2.9mph /  4.7km/h 3.0mph /  4.8km/h 3% 0.00in /  0mm 137.0 W/m2
18:12 77.5 °F /  25.3 °C -9.4 °F /  -23 °C 29.77in /  1008hPa West 2.9mph /  4.7km/h 8.0mph /  12.9km/h 3% 0.00in /  0mm 46.0 W/m2
18:17 76.8 °F /  24.9 °C -9.9 °F /  -23.3 °C 29.78in /  1008.4hPa WNW 0.9mph /  1.4km/h 7.0mph /  11.3km/h 3% 0.00in /  0mm 26.0 W/m2
18:22 76.1 °F /  24.5 °C -10.3 °F /  -23.5 °C 29.78in /  1008.4hPa West 0.9mph /  1.4km/h 7.0mph /  11.3km/h 3% 0.00in /  0mm 25.0 W/m2
18:32 74.7 °F /  23.7 °C -11.4 °F /  -24.1 °C 29.78in /  1008.4hPa WSW 2.9mph /  4.7km/h 11.0mph /  17.7km/h 3% 0.00in /  0mm 16.0 W/m2
18:38 73.8 °F /  23.2 °C -11.9 °F /  -24.4 °C 29.78in /  1008.4hPa SW 4.9mph /  7.9km/h 9.0mph /  14.5km/h 3% 0.00in /  0mm 12.0 W/m2
18:43 73.2 °F /  22.9 °C -6.5 °F /  -21.4 °C 29.78in /  1008.4hPa Calm   8.0mph /  12.9km/h 4% 0.00in /  0mm 9.0 W/m2
18:48 72.9 °F /  22.7 °C -6.7 °F /  -21.5 °C 29.78in /  1008.4hPa WSW 2.0mph /  3.2km/h 5.0mph /  8km/h 4% 0.00in /  0mm 5.0 W/m2
18:53 72.5 °F /  22.5 °C -6.9 °F /  -21.6 °C 29.78in /  1008.4hPa WSW 2.0mph /  3.2km/h 4.0mph /  6.4km/h 4% 0.00in /  0mm 0.0 W/m2
18:58 72.1 °F /  22.3 °C -7.2 °F /  -21.8 °C 29.79in /  1008.7hPa Calm   5.0mph /  8km/h 4% 0.00in /  0mm 0.0 W/m2
19:03 71.8 °F /  22.1 °C -7.4 °F /  -21.9 °C 29.79in /  1008.7hPa Calm   2.0mph /  3.2km/h 4% 0.00in /  0mm 0.0 W/m2
19:08 71.2 °F /  21.8 °C -3.3 °F /  -19.6 °C 29.79in /  1008.7hPa WSW 0.9mph /  1.4km/h 2.0mph /  3.2km/h 5% 0.00in /  0mm 0.0 W/m2
19:14 70.9 °F /  21.6 °C -3.5 °F /  -19.7 °C 29.79in /  1008.7hPa Calm   1.0mph /  1.6km/h 5% 0.00in /  0mm 0.0 W/m2
19:19 70.5 °F /  21.4 °C -3.6 °F /  -19.8 °C 29.80in /  1009hPa Calm     5% 0.00in /  0mm 0.0 W/m2
19:24 70.2 °F /  21.2 °C -4.0 °F /  -20 °C 29.80in /  1009hPa Calm   1.0mph /  1.6km/h 5% 0.00in /  0mm 0.0 W/m2
19:29 69.6 °F /  20.9 °C -4.4 °F /  -20.2 °C 29.80in /  1009hPa Calm   1.0mph /  1.6km/h 5% 0.00in /  0mm 0.0 W/m2
19:34 69.3 °F /  20.7 °C -0.8 °F /  -18.2 °C 29.80in /  1009hPa Calm     6% 0.00in /  0mm 0.0 W/m2
19:39 68.9 °F /  20.5 °C -1.1 °F /  -18.4 °C 29.81in /  1009.4hPa Calm     6% 0.00in /  0mm 0.0 W/m2
19:44 68.4 °F /  20.2 °C 1.8 °F /  -16.8 °C 29.81in /  1009.4hPa Calm     7% 0.00in /  0mm 0.0 W/m2
19:50 67.8 °F /  19.9 °C 4.3 °F /  -15.4 °C 29.81in /  1009.4hPa Calm     8% 0.00in /  0mm 0.0 W/m2
19:56 67.5 °F /  19.7 °C 4.1 °F /  -15.5 °C 29.81in /  1009.4hPa Calm   3.0mph /  4.8km/h 8% 0.00in /  0mm 0.0 W/m2
20:02 67.1 °F /  19.5 °C 6.4 °F /  -14.2 °C 29.82in /  1009.7hPa Calm   3.0mph /  4.8km/h 9% 0.00in /  0mm 0.0 W/m2
20:07 66.9 °F /  19.4 °C 6.3 °F /  -14.3 °C 29.82in /  1009.7hPa Calm     9% 0.00in /  0mm 0.0 W/m2
20:12 66.7 °F /  19.3 °C 8.4 °F /  -13.1 °C 29.82in /  1009.7hPa West 2.9mph /  4.7km/h 7.0mph /  11.3km/h 10% 0.00in /  0mm 0.0 W/m2
20:15 66.7 °F /  19.3 °C 8.4 °F /  -13.1 °C 29.82in /  1009.7hPa Calm   2.0mph /  3.2km/h 10% 0.00in /  0mm 0.0 W/m2
20:20 66.7 °F /  19.3 °C 6.1 °F /  -14.4 °C 29.82in /  1009.7hPa Calm   1.0mph /  1.6km/h 9% 0.00in /  0mm 0.0 W/m2
20:24 66.6 °F /  19.2 °C 5.9 °F /  -14.5 °C 29.82in /  1009.7hPa Calm     9% 0.00in /  0mm 0.0 W/m2
20:29 66.2 °F /  19 °C 5.7 °F /  -14.6 °C 29.82in /  1009.7hPa Calm     9% 0.00in /  0mm 0.0 W/m2
20:34 65.7 °F /  18.7 °C 5.2 °F /  -14.9 °C 29.83in /  1010hPa Calm     9% 0.00in /  0mm 0.0 W/m2
20:40 65.1 °F /  18.4 °C 7.2 °F /  -13.8 °C 29.83in /  1010hPa Calm     10% 0.00in /  0mm 0.0 W/m2
20:45 64.8 °F /  18.2 °C 9.0 °F /  -12.8 °C 29.83in /  1010hPa Calm     11% 0.00in /  0mm 0.0 W/m2
20:50 64.0 °F /  17.8 °C 8.4 °F /  -13.1 °C 29.83in /  1010hPa Calm     11% 0.00in /  0mm 0.0 W/m2
20:55 63.5 °F /  17.5 °C 8.1 °F /  -13.3 °C 29.83in /  1010hPa Calm     11% 0.00in /  0mm 0.0 W/m2
21:00 63.0 °F /  17.2 °C 9.5 °F /  -12.5 °C 29.84in /  1010.4hPa Calm     12% 0.00in /  0mm 0.0 W/m2
21:10 62.2 °F /  16.8 °C 10.8 °F /  -11.8 °C 29.84in /  1010.4hPa Calm     13% 0.00in /  0mm 0.0 W/m2
21:15 61.9 °F /  16.6 °C 10.4 °F /  -12 °C 29.84in /  1010.4hPa Calm     13% 0.00in /  0mm 0.0 W/m2
21:21 61.3 °F /  16.3 °C 10.0 °F /  -12.2 °C 29.85in /  1010.7hPa Calm     13% 0.00in /  0mm 0.0 W/m2
21:26 61.0 °F /  16.1 °C 9.7 °F /  -12.4 °C 29.85in /  1010.7hPa Calm     13% 0.00in /  0mm 0.0 W/m2
21:31 60.4 °F /  15.8 °C 10.9 °F /  -11.7 °C 29.85in /  1010.7hPa Calm     14% 0.00in /  0mm 0.0 W/m2
21:36 60.1 °F /  15.6 °C 12.2 °F /  -11 °C 29.85in /  1010.7hPa Calm     15% 0.00in /  0mm 0.0 W/m2
21:41 59.7 °F /  15.4 °C 12.0 °F /  -11.1 °C 29.85in /  1010.7hPa Calm     15% 0.00in /  0mm 0.0 W/m2
21:46 59.4 °F /  15.2 °C 11.7 °F /  -11.3 °C 29.85in /  1010.7hPa Calm     15% 0.00in /  0mm 0.0 W/m2
21:51 59.0 °F /  15 °C 11.5 °F /  -11.4 °C 29.85in /  1010.7hPa Calm     15% 0.00in /  0mm 0.0 W/m2
21:56 58.8 °F /  14.9 °C 12.7 °F /  -10.7 °C 29.86in /  1011.1hPa ESE 2.0mph /  3.2km/h 2.0mph /  3.2km/h 16% 0.00in /  0mm 0.0 W/m2
22:01 59.2 °F /  15.1 °C 15.6 °F /  -9.1 °C 29.85in /  1010.7hPa Calm   3.0mph /  4.8km/h 18% 0.00in /  0mm 0.0 W/m2
22:07 59.7 °F /  15.4 °C 16.2 °F /  -8.8 °C 29.85in /  1010.7hPa Calm   2.0mph /  3.2km/h 18% 0.00in /  0mm 0.0 W/m2
22:12 60.3 °F /  15.7 °C 16.5 °F /  -8.6 °C 29.85in /  1010.7hPa Calm   3.0mph /  4.8km/h 18% 0.00in /  0mm 0.0 W/m2
22:13 60.4 °F /  15.8 °C 16.7 °F /  -8.5 °C 29.85in /  1010.7hPa Calm   2.0mph /  3.2km/h 18% 0.00in /  0mm 0.0 W/m2
22:18 60.6 °F /  15.9 °C 16.9 °F /  -8.4 °C 29.86in /  1011.1hPa Calm   1.0mph /  1.6km/h 18% 0.00in /  0mm 0.0 W/m2
22:28 61.0 °F /  16.1 °C 17.2 °F /  -8.2 °C 29.86in /  1011.1hPa Calm     18% 0.00in /  0mm 0.0 W/m2
22:33 61.0 °F /  16.1 °C 17.2 °F /  -8.2 °C 29.86in /  1011.1hPa Calm     18% 0.00in /  0mm 0.0 W/m2
22:38 61.0 °F /  16.1 °C 17.2 °F /  -8.2 °C 29.86in /  1011.1hPa SW 0.9mph /  1.4km/h 1.0mph /  1.6km/h 18% 0.00in /  0mm 0.0 W/m2
22:43 60.6 °F /  15.9 °C 16.9 °F /  -8.4 °C 29.86in /  1011.1hPa Calm     18% 0.00in /  0mm 0.0 W/m2
22:48 60.4 °F /  15.8 °C 16.7 °F /  -8.5 °C 29.86in /  1011.1hPa Calm     18% 0.00in /  0mm 0.0 W/m2
22:53 60.3 °F /  15.7 °C 16.5 °F /  -8.6 °C 29.86in /  1011.1hPa Calm   1.0mph /  1.6km/h 18% 0.00in /  0mm 0.0 W/m2
22:59 60.3 °F /  15.7 °C 16.5 °F /  -8.6 °C 29.86in /  1011.1hPa Calm     18% 0.00in /  0mm 0.0 W/m2
23:04 60.4 °F /  15.8 °C 18.0 °F /  -7.8 °C 29.87in /  1011.4hPa SE 2.9mph /  4.7km/h 8.0mph /  12.9km/h 19% 0.00in /  0mm 0.0 W/m2
23:09 60.8 °F /  16 °C 18.3 °F /  -7.6 °C 29.86in /  1011.1hPa SSW 0.9mph /  1.4km/h 7.0mph /  11.3km/h 19% 0.00in /  0mm 0.0 W/m2
23:14 61.0 °F /  16.1 °C 18.5 °F /  -7.5 °C 29.87in /  1011.4hPa SSE 8.1mph /  13km/h 9.0mph /  14.5km/h 19% 0.00in /  0mm 0.0 W/m2
23:19 61.2 °F /  16.2 °C 18.5 °F /  -7.5 °C 29.87in /  1011.4hPa Calm   7.0mph /  11.3km/h 19% 0.00in /  0mm 0.0 W/m2
23:24 61.2 °F /  16.2 °C 18.5 °F /  -7.5 °C 29.87in /  1011.4hPa SE 2.9mph /  4.7km/h 3.0mph /  4.8km/h 19% 0.00in /  0mm 0.0 W/m2
23:29 61.2 °F /  16.2 °C 18.5 °F /  -7.5 °C 29.87in /  1011.4hPa SSE 2.0mph /  3.2km/h 7.0mph /  11.3km/h 19% 0.00in /  0mm 0.0 W/m2
23:34 61.0 °F /  16.1 °C 18.5 °F /  -7.5 °C 29.87in /  1011.4hPa Calm   9.0mph /  14.5km/h 19% 0.00in /  0mm 0.0 W/m2
23:40 60.6 °F /  15.9 °C 18.1 °F /  -7.7 °C 29.87in /  1011.4hPa Calm   4.0mph /  6.4km/h 19% 0.00in /  0mm 0.0 W/m2
23:45 60.6 °F /  15.9 °C 19.4 °F /  -7 °C 29.87in /  1011.4hPa Calm   8.0mph /  12.9km/h 20% 0.00in /  0mm 0.0 W/m2
23:50 60.4 °F /  15.8 °C 19.2 °F /  -7.1 °C 29.87in /  1011.4hPa SSE 0.9mph /  1.4km/h 6.0mph /  9.7km/h 20% 0.00in /  0mm 0.0 W/m2
23:55 60.3 °F /  15.7 °C 19.0 °F /  -7.2 °C 29.88in /  1011.7hPa SSW 2.9mph /  4.7km/h 10.0mph /  16.1km/h 20% 0.00in /  0mm 0.0 W/m2
Olympia, Windhoek, Namibia
Compliments of Weather Underground - 3.25 mb